createdAt,value
2023-04-28T00:01:01.890Z,39.80
2023-04-28T00:03:56.981Z,39.10
2023-04-28T00:06:50.351Z,39.00
2023-04-28T00:09:43.182Z,39.00
2023-04-28T00:12:36.508Z,38.90
2023-04-28T00:15:29.394Z,39.00
2023-04-28T00:18:24.204Z,38.90
2023-04-28T00:21:18.227Z,39.00
2023-04-28T00:24:11.319Z,39.00
2023-04-28T00:27:04.413Z,39.00
2023-04-28T00:29:57.531Z,39.00
2023-04-28T00:32:50.181Z,39.10
2023-04-28T00:35:44.612Z,39.10
2023-04-28T00:38:37.497Z,39.10
2023-04-28T00:41:30.511Z,39.00
2023-04-28T00:44:23.340Z,39.10
2023-04-28T00:47:19.585Z,39.10
2023-04-28T00:50:12.556Z,39.10
2023-04-28T00:53:06.598Z,39.10
2023-04-28T00:55:59.837Z,39.20
2023-04-28T00:58:53.834Z,39.20
2023-04-28T01:01:47.505Z,39.30
2023-04-28T01:04:40.893Z,39.30
2023-04-28T01:07:34.778Z,39.30
2023-04-28T01:10:29.870Z,39.40
2023-04-28T01:13:23.517Z,39.40
2023-04-28T01:16:16.416Z,39.50
2023-04-28T01:19:12.941Z,39.50
2023-04-28T01:22:06.964Z,39.40
2023-04-28T01:25:03.315Z,39.30
2023-04-28T01:27:56.324Z,39.30
2023-04-28T01:30:49.452Z,39.30
2023-04-28T01:33:42.419Z,39.20
2023-04-28T01:36:37.370Z,39.10
2023-04-28T01:39:31.424Z,39.00
2023-04-28T01:42:28.433Z,39.10
2023-04-28T01:45:21.870Z,39.10
2023-04-28T01:48:15.539Z,39.10
2023-04-28T01:51:10.073Z,39.10
2023-04-28T01:54:25.034Z,39.20
2023-04-28T01:57:19.173Z,39.20
2023-04-28T02:00:15.850Z,39.20
2023-04-28T02:03:09.850Z,39.30
2023-04-28T02:06:03.344Z,39.30
2023-04-28T02:08:56.467Z,39.20
2023-04-28T02:11:49.510Z,39.30
2023-04-28T02:14:42.573Z,39.40
2023-04-28T02:17:36.969Z,39.40
2023-04-28T02:20:31.877Z,39.40
2023-04-28T02:23:26.731Z,39.50
2023-04-28T02:26:19.514Z,39.50
2023-04-28T02:29:12.393Z,39.60
2023-04-28T02:32:05.213Z,39.60
2023-04-28T02:34:59.942Z,39.70
2023-04-28T02:37:53.460Z,39.80
2023-04-28T02:40:46.548Z,39.80
2023-04-28T02:43:39.515Z,39.80
2023-04-28T02:46:32.688Z,39.80
2023-04-28T02:49:25.531Z,39.80
2023-04-28T02:52:19.995Z,39.90
2023-04-28T02:55:23.682Z,39.80
2023-04-28T02:58:17.869Z,40.10
2023-04-28T03:01:11.372Z,39.90
2023-04-28T03:04:04.958Z,40.00
2023-04-28T03:06:58.286Z,40.00
2023-04-28T03:09:52.710Z,40.10
2023-04-28T03:12:45.478Z,40.10
2023-04-28T03:15:38.550Z,40.20
2023-04-28T03:18:31.462Z,40.20
2023-04-28T03:21:26.313Z,40.20
2023-04-28T03:24:19.311Z,40.20
2023-04-28T03:27:14.041Z,40.20
2023-04-28T03:30:08.744Z,40.20
2023-04-28T03:33:01.440Z,40.30
2023-04-28T03:35:54.786Z,40.30
2023-04-28T03:38:47.811Z,40.30
2023-04-28T03:41:41.414Z,40.20
2023-04-28T03:44:36.125Z,40.30
2023-04-28T03:47:29.569Z,40.30
2023-04-28T03:50:24.767Z,40.30
2023-04-28T03:53:19.633Z,40.40
2023-04-28T03:56:12.513Z,40.40
2023-04-28T03:59:05.332Z,40.40
2023-04-28T04:02:00.159Z,40.40
2023-04-28T04:04:54.296Z,40.40
2023-04-28T04:07:47.440Z,40.40
2023-04-28T04:10:40.549Z,40.50
2023-04-28T04:13:33.419Z,40.40
2023-04-28T04:16:26.871Z,40.50
2023-04-28T04:19:24.049Z,40.60
2023-04-28T04:22:17.608Z,40.60
2023-04-28T04:25:11.025Z,41.20
2023-04-28T04:28:04.943Z,40.70
2023-04-28T04:30:58.550Z,40.70
2023-04-28T04:33:51.691Z,40.80
2023-04-28T04:36:45.712Z,40.90
2023-04-28T04:39:38.351Z,40.90
2023-04-28T04:42:31.961Z,41.00
2023-04-28T04:45:25.469Z,41.10
2023-04-28T04:48:18.710Z,41.10
2023-04-28T04:51:11.988Z,41.20
2023-04-28T04:54:06.737Z,41.10
2023-04-28T04:56:59.526Z,41.10
2023-04-28T04:59:52.706Z,41.00
2023-04-28T05:02:46.130Z,41.00
2023-04-28T05:05:40.127Z,40.90
2023-04-28T05:08:33.757Z,40.90
2023-04-28T05:11:28.032Z,41.60
2023-04-28T05:14:21.534Z,40.90
2023-04-28T05:17:14.525Z,40.90
2023-04-28T05:20:09.411Z,40.90
2023-04-28T05:23:03.778Z,40.90
2023-04-28T05:25:56.755Z,40.90
2023-04-28T05:28:51.331Z,40.90
2023-04-28T05:31:44.605Z,40.90
2023-04-28T05:34:37.355Z,40.90
2023-04-28T05:37:30.649Z,40.90
2023-04-28T05:40:23.704Z,40.90
2023-04-28T05:43:16.607Z,41.00
2023-04-28T05:46:28.266Z,40.90
2023-04-28T05:49:22.472Z,41.00
2023-04-28T05:52:15.752Z,41.00
2023-04-28T05:55:09.335Z,41.00
2023-04-28T05:58:02.738Z,41.00
2023-04-28T06:00:55.677Z,41.10
2023-04-28T06:03:50.127Z,41.20
2023-04-28T06:06:43.550Z,41.20
2023-04-28T06:09:36.971Z,41.30
2023-04-28T06:12:30.721Z,41.30
2023-04-28T06:15:23.854Z,41.30
2023-04-28T06:18:16.756Z,41.30
2023-04-28T06:21:11.036Z,41.30
2023-04-28T06:24:05.158Z,41.30
2023-04-28T06:26:58.750Z,41.30
2023-04-28T06:29:51.314Z,41.20
2023-04-28T06:32:44.675Z,41.20
2023-04-28T06:35:39.084Z,41.20
2023-04-28T06:38:34.013Z,41.20
2023-04-28T06:41:29.145Z,41.20
2023-04-28T06:44:23.176Z,41.20
2023-04-28T06:47:17.004Z,41.20
2023-04-28T06:50:11.250Z,41.20
2023-04-28T06:53:04.498Z,41.20
2023-04-28T06:55:59.000Z,41.20
2023-04-28T06:58:53.058Z,41.20
2023-04-28T07:01:46.808Z,41.20
2023-04-28T07:04:40.123Z,41.30
2023-04-28T07:07:33.789Z,41.30
2023-04-28T07:10:26.816Z,41.30
2023-04-28T07:13:21.175Z,41.30
2023-04-28T07:16:14.903Z,41.40
2023-04-28T07:19:08.372Z,41.30
2023-04-28T07:22:01.749Z,41.40
2023-04-28T07:24:54.908Z,41.40
2023-04-28T07:27:47.874Z,41.40
2023-04-28T07:30:41.924Z,41.50
2023-04-28T07:33:34.442Z,41.50
2023-04-28T07:36:27.879Z,41.60
2023-04-28T07:39:25.337Z,41.60
2023-04-28T07:42:19.060Z,41.70
2023-04-28T07:45:13.861Z,41.60
2023-04-28T07:48:10.005Z,41.70
2023-04-28T07:51:03.388Z,41.70
2023-04-28T07:53:57.208Z,41.70
2023-04-28T07:56:52.697Z,41.70
2023-04-28T07:59:45.850Z,41.70
2023-04-28T08:02:39.077Z,41.80
2023-04-28T08:05:34.167Z,41.60
2023-04-28T08:08:27.631Z,41.60
2023-04-28T08:11:21.376Z,41.60
2023-04-28T08:14:15.151Z,41.60
2023-04-28T08:17:08.475Z,41.70
2023-04-28T08:20:01.788Z,41.70
2023-04-28T08:22:56.171Z,41.70
2023-04-28T08:25:51.263Z,41.70
2023-04-28T08:28:44.810Z,41.80
2023-04-28T08:31:37.892Z,41.80
2023-04-28T08:34:30.911Z,41.80
2023-04-28T08:37:23.627Z,41.90
2023-04-28T08:40:18.344Z,42.50
2023-04-28T08:43:11.666Z,41.90
2023-04-28T08:46:07.832Z,41.90
2023-04-28T08:49:02.458Z,41.90
2023-04-28T08:52:00.259Z,42.00
2023-04-28T08:54:54.238Z,42.00
2023-04-28T08:57:51.457Z,42.10
2023-04-28T09:00:44.614Z,42.40
2023-04-28T09:03:38.030Z,42.40
2023-04-28T09:06:34.884Z,42.60
2023-04-28T09:09:32.494Z,42.50
2023-04-28T09:12:37.695Z,42.60
2023-04-28T09:15:34.374Z,42.60
2023-04-28T09:18:28.223Z,42.60
2023-04-28T09:21:21.898Z,42.60
2023-04-28T09:24:30.595Z,42.60
2023-04-28T09:27:28.706Z,42.60
2023-04-28T09:30:39.947Z,42.60
2023-04-28T09:33:33.152Z,42.50
2023-04-28T09:36:30.678Z,42.40
2023-04-28T09:39:32.250Z,42.40
2023-04-28T09:42:36.406Z,42.40
2023-04-28T09:45:42.943Z,42.40
2023-04-28T09:48:38.026Z,42.30
2023-04-28T09:51:30.688Z,42.40
2023-04-28T09:54:24.542Z,42.40
2023-04-28T09:57:18.789Z,42.40
2023-04-28T10:00:12.799Z,42.40
2023-04-28T10:03:08.145Z,42.50
2023-04-28T10:06:04.215Z,42.40
2023-04-28T10:09:00.447Z,42.30
2023-04-28T10:11:53.718Z,42.30
2023-04-28T10:14:50.051Z,42.40
2023-04-28T10:17:42.875Z,42.40
2023-04-28T10:20:37.532Z,42.50
2023-04-28T10:24:04.948Z,42.50
2023-04-28T10:27:06.357Z,42.60
2023-04-28T10:30:22.885Z,42.60
2023-04-28T10:33:26.731Z,42.80
2023-04-28T10:36:50.753Z,43.00
2023-04-28T10:39:58.518Z,43.10
2023-04-28T10:42:56.302Z,43.30
2023-04-28T10:46:11.714Z,43.50
2023-04-28T10:49:04.906Z,43.40
2023-04-28T10:51:59.438Z,43.50
2023-04-28T10:55:28.766Z,43.60
2023-04-28T10:58:34.187Z,43.80
2023-04-28T11:01:29.887Z,44.10
2023-04-28T11:04:24.338Z,44.40
2023-04-28T11:07:19.229Z,44.40
2023-04-28T11:10:12.885Z,44.50
2023-04-28T11:13:28.214Z,44.70
2023-04-28T11:16:24.895Z,44.40
2023-04-28T11:19:20.659Z,44.20
2023-04-28T11:22:16.590Z,44.30
2023-04-28T11:25:11.248Z,44.40
2023-04-28T11:28:06.972Z,44.50
2023-04-28T11:31:12.493Z,45.40
2023-04-28T11:34:06.695Z,45.00
2023-04-28T11:37:00.423Z,45.00
2023-04-28T11:39:53.689Z,45.10
2023-04-28T11:42:51.593Z,45.40
2023-04-28T11:45:47.583Z,45.40
2023-04-28T11:48:41.753Z,45.30
2023-04-28T11:51:38.119Z,45.40
2023-04-28T11:54:31.524Z,45.20
2023-04-28T11:57:25.340Z,45.20
2023-04-28T12:00:22.689Z,45.10
2023-04-28T12:03:15.822Z,45.10
2023-04-28T12:06:09.649Z,45.10
2023-04-28T12:09:15.646Z,45.20
2023-04-28T12:12:11.920Z,47.10
2023-04-28T12:15:06.825Z,46.20
2023-04-28T12:18:11.516Z,47.00
2023-04-28T12:21:05.578Z,47.00
2023-04-28T12:23:59.050Z,47.10
2023-04-28T12:26:51.840Z,46.60
2023-04-28T12:29:46.513Z,46.00
2023-04-28T12:32:40.572Z,46.20
2023-04-28T12:35:35.577Z,46.40
2023-04-28T12:38:29.201Z,46.70
2023-04-28T12:41:21.866Z,47.20
2023-04-28T12:44:15.923Z,47.30
2023-04-28T12:47:11.001Z,47.20
2023-04-28T12:50:03.657Z,47.20
2023-04-28T12:52:58.621Z,47.30
2023-04-28T12:55:52.254Z,47.20
2023-04-28T12:58:45.015Z,46.70
2023-04-28T13:01:38.371Z,46.20
2023-04-28T13:04:32.763Z,46.00
2023-04-28T13:07:26.097Z,45.60
2023-04-28T13:10:21.409Z,45.60
2023-04-28T13:13:14.929Z,46.10
2023-04-28T13:16:08.786Z,46.00
2023-04-28T13:19:02.557Z,45.90
2023-04-28T13:21:56.234Z,45.60
2023-04-28T13:24:49.014Z,45.70
2023-04-28T13:27:43.503Z,45.70
2023-04-28T13:30:36.878Z,45.80
2023-04-28T13:33:31.348Z,45.60
2023-04-28T13:36:25.052Z,45.50
2023-04-28T13:39:20.366Z,45.60
2023-04-28T13:42:14.101Z,45.50
2023-04-28T13:45:09.006Z,45.50
2023-04-28T13:48:03.218Z,45.60
2023-04-28T13:50:56.310Z,45.50
2023-04-28T13:53:52.276Z,45.60
2023-04-28T13:56:45.002Z,45.80
2023-04-28T13:59:37.934Z,46.00
2023-04-28T14:02:33.371Z,45.90
2023-04-28T14:05:29.723Z,46.00
2023-04-28T14:08:24.421Z,46.00
2023-04-28T14:11:18.768Z,46.00
2023-04-28T14:14:12.096Z,46.10
2023-04-28T14:17:05.809Z,46.10
2023-04-28T14:20:01.434Z,46.40
2023-04-28T14:22:55.186Z,46.10
2023-04-28T14:25:48.191Z,46.40
2023-04-28T14:28:42.191Z,46.50
2023-04-28T14:31:35.155Z,46.40
2023-04-28T14:34:28.660Z,46.50
2023-04-28T14:37:23.141Z,46.50
2023-04-28T14:40:16.477Z,46.70
2023-04-28T14:43:10.265Z,46.60
2023-04-28T14:46:03.571Z,46.70
2023-04-28T14:48:58.676Z,46.60
2023-04-28T14:51:51.939Z,46.80
2023-04-28T14:54:47.279Z,46.70
2023-04-28T14:57:40.756Z,47.10
2023-04-28T15:00:34.600Z,46.90
2023-04-28T15:03:29.078Z,47.60
2023-04-28T15:06:22.247Z,47.40
2023-04-28T15:09:15.299Z,47.10
2023-04-28T15:12:09.457Z,47.30
2023-04-28T15:15:03.201Z,47.30
2023-04-28T15:18:00.602Z,47.30
2023-04-28T15:20:53.872Z,47.20
2023-04-28T15:23:47.338Z,47.30
2023-04-28T15:26:40.196Z,47.30
2023-04-28T15:29:34.656Z,47.40
2023-04-28T15:32:30.443Z,47.50
2023-04-28T15:35:24.482Z,47.30
2023-04-28T15:38:18.194Z,47.60
2023-04-28T15:41:11.316Z,47.50
2023-04-28T15:44:04.960Z,47.70
2023-04-28T15:46:59.953Z,48.20
2023-04-28T15:49:53.443Z,47.40
2023-04-28T15:52:47.403Z,47.60
2023-04-28T15:55:40.945Z,47.50
2023-04-28T15:58:34.376Z,47.40
2023-04-28T16:01:27.445Z,47.60
2023-04-28T16:04:22.752Z,48.00
2023-04-28T16:07:15.974Z,47.90
2023-04-28T16:10:10.621Z,47.90
2023-04-28T16:13:05.439Z,47.80
2023-04-28T16:15:59.433Z,47.90
2023-04-28T16:18:52.394Z,47.90
2023-04-28T16:21:46.746Z,48.00
2023-04-28T16:24:43.575Z,47.80
2023-04-28T16:27:37.797Z,47.80
2023-04-28T16:30:32.632Z,47.90
2023-04-28T16:33:26.634Z,48.10
2023-04-28T16:36:20.254Z,48.10
2023-04-28T16:39:15.452Z,48.10
2023-04-28T16:42:08.909Z,48.20
2023-04-28T16:45:02.119Z,48.10
2023-04-28T16:47:55.223Z,48.10
2023-04-28T16:50:48.004Z,47.90
2023-04-28T16:53:41.290Z,47.80
2023-04-28T16:56:38.920Z,47.90
2023-04-28T16:59:33.762Z,48.10
2023-04-28T17:02:29.574Z,47.90
2023-04-28T17:05:23.181Z,48.50
2023-04-28T17:08:16.396Z,47.80
2023-04-28T17:11:09.460Z,48.00
2023-04-28T17:14:04.390Z,48.10
2023-04-28T17:16:57.250Z,47.90
2023-04-28T17:19:50.254Z,48.50
2023-04-28T17:22:43.409Z,48.10
2023-04-28T17:25:38.539Z,48.10
2023-04-28T17:28:32.683Z,48.30
2023-04-28T17:31:28.022Z,48.10
2023-04-28T17:34:21.287Z,48.10
2023-04-28T17:37:13.823Z,48.20
2023-04-28T17:40:08.582Z,48.10
2023-04-28T17:43:02.655Z,48.20
2023-04-28T17:45:56.207Z,48.20
2023-04-28T17:48:50.576Z,48.30
2023-04-28T17:51:44.248Z,48.30
2023-04-28T17:54:37.166Z,48.30
2023-04-28T17:57:30.381Z,48.40
2023-04-28T18:00:23.828Z,48.20
2023-04-28T18:03:17.015Z,48.40
2023-04-28T18:06:11.775Z,48.30
2023-04-28T18:09:05.371Z,48.40
2023-04-28T18:11:58.085Z,48.40
2023-04-28T18:14:51.953Z,48.50
2023-04-28T18:17:45.815Z,48.50
2023-04-28T18:20:38.979Z,48.40
2023-04-28T18:23:34.076Z,48.50
2023-04-28T18:26:27.392Z,49.00
2023-04-28T18:29:20.427Z,49.10
2023-04-28T18:32:15.012Z,49.30
2023-04-28T18:35:08.260Z,49.10
2023-04-28T18:38:01.520Z,49.00
2023-04-28T18:40:55.677Z,48.80
2023-04-28T18:43:49.239Z,48.80
2023-04-28T18:46:42.392Z,49.20
2023-04-28T18:49:35.583Z,49.30
2023-04-28T18:52:29.912Z,49.10
2023-04-28T18:55:23.699Z,48.80
2023-04-28T18:58:18.313Z,49.10
2023-04-28T19:01:15.172Z,49.10
2023-04-28T19:04:09.070Z,49.10
2023-04-28T19:07:02.000Z,48.80
2023-04-28T19:09:55.338Z,49.00
2023-04-28T19:12:48.337Z,48.80
2023-04-28T19:15:42.603Z,49.10
2023-04-28T19:18:37.019Z,49.20
2023-04-28T19:21:30.409Z,49.30
2023-04-28T19:24:23.458Z,49.10
2023-04-28T19:27:16.608Z,49.20
2023-04-28T19:30:13.018Z,49.00
2023-04-28T19:33:08.122Z,49.20
2023-04-28T19:36:01.519Z,48.70
2023-04-28T19:38:54.430Z,48.70
2023-04-28T19:41:48.055Z,48.90
2023-04-28T19:44:41.348Z,49.10
2023-04-28T19:47:36.770Z,49.00
2023-04-28T19:50:32.256Z,48.80
2023-04-28T19:53:25.312Z,48.80
2023-04-28T19:56:18.199Z,49.10
2023-04-28T19:59:11.204Z,49.20
2023-04-28T20:02:07.813Z,49.00
2023-04-28T20:05:01.449Z,48.80
2023-04-28T20:07:56.528Z,49.50
2023-04-28T20:10:50.023Z,48.70
2023-04-28T20:13:43.830Z,48.90
2023-04-28T20:16:37.579Z,48.90
2023-04-28T20:19:30.658Z,49.10
2023-04-28T20:22:24.128Z,48.70
2023-04-28T20:25:18.791Z,48.60
2023-04-28T20:28:12.542Z,48.90
2023-04-28T20:31:09.002Z,48.60
2023-04-28T20:34:02.182Z,48.60
2023-04-28T20:36:56.450Z,48.70
2023-04-28T20:39:50.510Z,48.70
2023-04-28T20:42:45.560Z,48.70
2023-04-28T20:45:38.391Z,48.70
2023-04-28T20:48:31.771Z,48.50
2023-04-28T20:51:25.396Z,48.60
2023-04-28T20:54:18.763Z,48.30
2023-04-28T20:57:12.368Z,48.40
2023-04-28T21:00:08.927Z,48.30
2023-04-28T21:03:04.478Z,48.30
2023-04-28T21:05:58.643Z,48.40
2023-04-28T21:08:52.728Z,48.80
2023-04-28T21:11:46.291Z,48.30
2023-04-28T21:14:39.843Z,48.20
2023-04-28T21:17:34.721Z,48.10
2023-04-28T21:20:28.602Z,47.90
2023-04-28T21:23:21.500Z,47.70
2023-04-28T21:26:14.465Z,47.70
2023-04-28T21:29:08.124Z,47.70
2023-04-28T21:32:01.183Z,47.60
2023-04-28T21:34:55.749Z,47.60
2023-04-28T21:37:49.376Z,47.50
2023-04-28T21:40:42.408Z,47.50
2023-04-28T21:43:35.357Z,47.40
2023-04-28T21:46:28.751Z,48.00
2023-04-28T21:49:22.110Z,47.30
2023-04-28T21:52:16.903Z,47.20
2023-04-28T21:55:10.794Z,47.30
2023-04-28T21:58:04.157Z,47.20
2023-04-28T22:00:57.319Z,47.40
2023-04-28T22:03:50.611Z,47.50
2023-04-28T22:06:46.214Z,47.50
2023-04-28T22:09:40.408Z,47.50
2023-04-28T22:12:33.119Z,47.20
2023-04-28T22:15:27.176Z,47.20
2023-04-28T22:18:20.435Z,47.10
2023-04-28T22:21:13.983Z,47.10
2023-04-28T22:24:08.211Z,47.00
2023-04-28T22:27:03.257Z,46.90
2023-04-28T22:29:56.348Z,47.00
2023-04-28T22:32:49.554Z,46.80
2023-04-28T22:35:42.252Z,46.90
2023-04-28T22:38:35.384Z,47.00
2023-04-28T22:41:28.378Z,46.60
2023-04-28T22:44:22.745Z,46.70
2023-04-28T22:47:17.448Z,46.50
2023-04-28T22:50:11.996Z,46.50
2023-04-28T22:53:05.421Z,46.40
2023-04-28T22:56:00.363Z,46.20
2023-04-28T22:58:53.071Z,46.20
2023-04-28T23:01:47.917Z,46.10
2023-04-28T23:04:41.916Z,46.20
2023-04-28T23:07:35.933Z,46.10
2023-04-28T23:10:29.261Z,46.10
2023-04-28T23:13:22.513Z,46.20
2023-04-28T23:16:15.592Z,46.20
2023-04-28T23:19:09.741Z,46.10
2023-04-28T23:22:03.356Z,46.70
2023-04-28T23:24:56.225Z,46.80
2023-04-28T23:27:49.531Z,46.80
2023-04-28T23:30:42.626Z,46.60
2023-04-28T23:33:35.173Z,46.70
2023-04-28T23:36:29.760Z,47.10
2023-04-28T23:39:22.399Z,46.40
2023-04-28T23:42:16.304Z,46.30
2023-04-28T23:45:10.884Z,46.30
2023-04-28T23:48:04.569Z,46.20
2023-04-28T23:50:57.574Z,46.20
2023-04-28T23:53:52.259Z,46.10
2023-04-28T23:56:45.216Z,46.00
2023-04-28T23:59:38.374Z,46.40
